Layer de la Haye, United Kingdom
Current Conditions -  °F | °C
As of 9:50 AM on Sunday 25 Jan 2015 (Local Time) from EGUW Reporting Station
Scattered Clouds Scattered Clouds  
Wind Chill: -1°   Ceiling: Unl
Heat Index:   Visibility: 6mi
Dew Point:   Wind: 7mph
Humidity: 87%   Direction: 230°SW
Pressure: 30.42"   Gusts: NA
Location:  51.85°N, 0.86°E
Report Text: EGUW 250950Z AUTO 23006KT 9999 SCT080/// 02/M00 Q1030
Loading
Personal Weather Stations






























Interactive Weather Map New forecast layout! Learn more

10-Day Weather Forecast

Advertisements
Track Severe Weather on mobile